createdAt,value
2018-10-07T00:00:07.009Z,10.70
2018-10-07T00:02:11.833Z,9.80
2018-10-07T00:04:16.174Z,10.60
2018-10-07T00:06:20.322Z,8.67
2018-10-07T00:08:26.156Z,11.77
2018-10-07T00:10:30.456Z,9.83
2018-10-07T00:12:34.768Z,7.97
2018-10-07T00:14:39.079Z,8.80
2018-10-07T00:16:43.433Z,12.00
2018-10-07T00:18:47.758Z,8.53
2018-10-07T00:20:55.603Z,10.60
2018-10-07T00:22:59.719Z,10.40
2018-10-07T00:25:04.004Z,8.83
2018-10-07T00:27:09.437Z,9.27
2018-10-07T00:29:13.548Z,8.73
2018-10-07T00:31:19.565Z,9.23
2018-10-07T00:33:24.340Z,9.77
2018-10-07T00:35:36.664Z,13.13
2018-10-07T00:37:40.859Z,8.17
2018-10-07T00:39:45.545Z,7.83
2018-10-07T00:41:49.625Z,9.50
2018-10-07T00:43:56.612Z,11.07
2018-10-07T00:46:01.065Z,11.10
2018-10-07T00:48:12.424Z,7.77
2018-10-07T00:50:19.449Z,10.10
2018-10-07T00:52:25.318Z,11.80
2018-10-07T00:54:33.697Z,7.83
2018-10-07T00:56:39.965Z,11.73
2018-10-07T00:58:45.847Z,8.53
2018-10-07T01:00:50.012Z,9.90
2018-10-07T01:02:54.825Z,9.90
2018-10-07T01:05:00.176Z,10.70
2018-10-07T01:07:04.492Z,11.67
2018-10-07T01:09:10.711Z,11.47
2018-10-07T01:11:16.763Z,12.13
2018-10-07T01:13:20.955Z,10.80
2018-10-07T01:15:25.494Z,13.43
2018-10-07T01:17:30.170Z,11.00
2018-10-07T01:19:34.270Z,12.73
2018-10-07T01:21:45.413Z,11.40
2018-10-07T01:23:51.125Z,11.47
2018-10-07T01:25:55.249Z,17.23
2018-10-07T01:28:02.968Z,15.67
2018-10-07T01:30:07.944Z,12.13
2018-10-07T01:32:12.281Z,11.87
2018-10-07T01:34:16.611Z,11.53
2018-10-07T01:36:21.409Z,12.30
2018-10-07T01:38:25.751Z,12.57
2018-10-07T01:40:30.130Z,13.00
2018-10-07T01:42:35.510Z,17.87
2018-10-07T01:44:39.855Z,15.73
2018-10-07T01:46:49.029Z,14.43
2018-10-07T01:48:54.385Z,12.47
2018-10-07T01:51:01.927Z,12.70
2018-10-07T01:53:06.016Z,13.13
2018-10-07T01:55:10.622Z,15.13
2018-10-07T01:57:16.983Z,14.90
2018-10-07T01:59:21.340Z,13.50
2018-10-07T02:01:27.066Z,15.17
2018-10-07T02:03:43.170Z,17.13
2018-10-07T02:05:48.094Z,14.07
2018-10-07T02:07:53.697Z,16.87
2018-10-07T02:09:58.077Z,16.43
2018-10-07T02:12:07.081Z,15.87
2018-10-07T02:14:11.536Z,12.23
2018-10-07T02:16:15.771Z,13.27
2018-10-07T02:18:19.998Z,17.23
2018-10-07T02:20:26.930Z,16.50
2018-10-07T02:22:33.680Z,14.67
2018-10-07T02:24:50.262Z,13.23
2018-10-07T02:27:03.453Z,12.83
2018-10-07T02:29:08.005Z,12.90
2018-10-07T02:31:13.072Z,12.07
2018-10-07T02:33:21.205Z,14.20
2018-10-07T02:35:25.327Z,12.10
2018-10-07T02:37:29.525Z,13.80
2018-10-07T02:39:41.777Z,11.13
2018-10-07T02:41:46.088Z,12.20
2018-10-07T02:43:50.373Z,15.90
2018-10-07T02:45:54.698Z,11.10
2018-10-07T02:47:59.010Z,12.23
2018-10-07T02:50:17.224Z,11.37
2018-10-07T02:52:26.990Z,12.30
2018-10-07T02:54:31.142Z,11.53
2018-10-07T02:56:35.467Z,14.77
2018-10-07T02:58:39.948Z,12.77
2018-10-07T03:00:45.895Z,12.97
2018-10-07T03:02:50.977Z,12.67
2018-10-07T03:04:55.432Z,14.23
2018-10-07T03:06:59.618Z,14.47
2018-10-07T03:09:04.010Z,11.70
2018-10-07T03:11:08.505Z,15.93
2018-10-07T03:13:12.714Z,12.40
2018-10-07T03:15:17.581Z,13.17
2018-10-07T03:17:23.220Z,13.00
2018-10-07T03:19:27.388Z,14.20
2018-10-07T03:21:31.947Z,15.63
2018-10-07T03:23:37.358Z,13.40
2018-10-07T03:25:42.467Z,14.87
2018-10-07T03:27:48.650Z,14.57
2018-10-07T03:29:55.419Z,13.73
2018-10-07T03:32:02.570Z,12.03
2018-10-07T03:34:13.588Z,14.00
2018-10-07T03:36:17.847Z,13.83
2018-10-07T03:38:22.050Z,13.47
2018-10-07T03:40:27.765Z,15.07
2018-10-07T03:42:34.362Z,15.00
2018-10-07T03:44:40.542Z,15.43
2018-10-07T03:46:45.531Z,14.77
2018-10-07T03:48:51.437Z,14.27
2018-10-07T03:50:59.068Z,16.03
2018-10-07T03:53:03.406Z,16.90
2018-10-07T03:55:10.209Z,18.03
2018-10-07T03:57:14.338Z,14.30
2018-10-07T03:59:19.360Z,16.53
2018-10-07T04:01:23.482Z,12.20
2018-10-07T04:03:27.563Z,13.53
2018-10-07T04:05:31.629Z,12.77
2018-10-07T04:07:36.168Z,13.20
2018-10-07T04:09:40.553Z,14.27
2018-10-07T04:11:44.667Z,14.93
2018-10-07T04:13:49.073Z,15.27
2018-10-07T04:15:53.879Z,12.97
2018-10-07T04:17:57.994Z,13.13
2018-10-07T04:20:02.402Z,13.23
2018-10-07T04:22:08.127Z,14.63
2018-10-07T04:24:12.632Z,17.33
2018-10-07T04:26:17.603Z,16.93
2018-10-07T04:28:22.798Z,17.13
2018-10-07T04:30:31.017Z,16.93
2018-10-07T04:32:37.077Z,17.17
2018-10-07T04:34:41.980Z,13.43
2018-10-07T04:36:46.083Z,14.93
2018-10-07T04:38:51.703Z,15.07
2018-10-07T04:40:58.500Z,14.30
2018-10-07T04:43:04.009Z,21.03
2018-10-07T04:45:12.516Z,16.73
2018-10-07T04:47:16.735Z,15.57
2018-10-07T04:49:20.889Z,17.07
2018-10-07T04:51:26.057Z,17.43
2018-10-07T04:53:30.420Z,16.60
2018-10-07T04:55:35.236Z,18.93
2018-10-07T04:57:39.833Z,16.07
2018-10-07T04:59:44.167Z,17.13
2018-10-07T05:01:48.463Z,15.93
2018-10-07T05:03:53.169Z,16.70
2018-10-07T05:05:58.464Z,17.97
2018-10-07T05:08:04.522Z,15.40
2018-10-07T05:11:19.134Z,17.10
2018-10-07T05:13:26.877Z,16.60
2018-10-07T05:15:32.191Z,16.03
2018-10-07T05:17:37.255Z,16.37
2018-10-07T05:19:41.378Z,15.00
2018-10-07T05:21:46.355Z,15.00
2018-10-07T05:23:52.474Z,15.53
2018-10-07T05:28:11.036Z,16.93
2018-10-07T05:30:15.209Z,15.20
2018-10-07T05:32:20.174Z,16.10
2018-10-07T05:34:24.792Z,14.57
2018-10-07T05:36:32.863Z,16.53
2018-10-07T05:38:37.318Z,17.27
2018-10-07T05:40:44.298Z,17.53
2018-10-07T05:42:48.464Z,18.10
2018-10-07T05:44:52.594Z,19.27
2018-10-07T05:46:56.781Z,15.80
2018-10-07T05:49:00.893Z,15.43
2018-10-07T05:51:06.694Z,15.87
2018-10-07T05:53:13.250Z,17.20
2018-10-07T05:55:17.439Z,17.63
2018-10-07T05:57:23.345Z,14.33
2018-10-07T05:59:28.519Z,20.93
2018-10-07T06:01:43.792Z,17.57
2018-10-07T06:03:57.605Z,17.37
2018-10-07T06:06:02.420Z,15.47
2018-10-07T06:08:07.580Z,16.40
2018-10-07T06:10:16.228Z,15.43
2018-10-07T06:12:20.549Z,14.00
2018-10-07T06:14:36.088Z,14.50
2018-10-07T06:16:42.840Z,14.20
2018-10-07T06:18:48.980Z,19.57
2018-10-07T06:21:03.555Z,24.17
2018-10-07T06:23:13.824Z,22.50
2018-10-07T06:25:22.791Z,25.93
2018-10-07T06:27:30.966Z,23.90
2018-10-07T06:29:36.496Z,25.37
2018-10-07T06:31:41.540Z,27.47
2018-10-07T06:33:48.725Z,23.87
2018-10-07T06:35:53.017Z,28.17
2018-10-07T06:37:57.904Z,29.03
2018-10-07T06:40:02.732Z,29.03
2018-10-07T06:42:08.172Z,29.93
2018-10-07T06:44:13.953Z,29.00
2018-10-07T06:46:20.099Z,28.43
2018-10-07T06:48:29.032Z,30.10
2018-10-07T06:50:36.538Z,33.63
2018-10-07T06:52:49.637Z,28.43
2018-10-07T06:54:55.159Z,32.37
2018-10-07T06:56:59.578Z,30.33
2018-10-07T06:59:06.720Z,32.83
2018-10-07T07:01:11.347Z,33.90
2018-10-07T07:03:20.880Z,32.47
2018-10-07T07:05:27.694Z,32.73
2018-10-07T07:07:36.053Z,33.27
2018-10-07T07:09:43.698Z,29.90
2018-10-07T07:11:47.981Z,34.83
2018-10-07T07:13:55.453Z,35.00
2018-10-07T07:16:02.374Z,32.47
2018-10-07T07:18:06.683Z,37.87
2018-10-07T07:20:11.000Z,35.67
2018-10-07T07:22:20.200Z,35.73
2018-10-07T07:24:26.318Z,37.73
2018-10-07T07:26:30.701Z,35.93
2018-10-07T07:28:36.185Z,40.20
2018-10-07T07:30:41.314Z,37.27
2018-10-07T07:32:45.576Z,42.43
2018-10-07T07:34:54.832Z,37.70
2018-10-07T07:37:00.489Z,48.60
2018-10-07T07:39:05.719Z,42.70
2018-10-07T07:41:10.715Z,41.80
2018-10-07T07:43:15.126Z,42.23
2018-10-07T07:45:21.225Z,43.40
2018-10-07T07:47:25.541Z,43.67
2018-10-07T07:49:29.700Z,42.67
2018-10-07T07:51:34.603Z,46.33
2018-10-07T07:53:44.909Z,40.87
2018-10-07T07:55:49.321Z,45.83
2018-10-07T07:57:53.778Z,43.93
2018-10-07T07:59:58.583Z,44.33
2018-10-07T08:02:02.699Z,44.90
2018-10-07T08:04:07.106Z,46.03
2018-10-07T08:06:12.045Z,43.03
2018-10-07T08:08:16.803Z,43.47
2018-10-07T08:10:21.097Z,43.03
2018-10-07T08:12:25.402Z,43.13
2018-10-07T08:14:31.869Z,41.20
2018-10-07T08:16:36.894Z,42.13
2018-10-07T08:18:41.475Z,43.73
2018-10-07T08:20:46.790Z,42.40
2018-10-07T08:22:53.777Z,41.77
2018-10-07T08:24:59.269Z,40.97
2018-10-07T08:27:04.210Z,37.00
2018-10-07T08:29:08.272Z,41.73
2018-10-07T08:31:12.833Z,42.33
2018-10-07T08:33:17.052Z,45.27
2018-10-07T08:35:21.919Z,45.33
2018-10-07T08:37:26.222Z,45.50
2018-10-07T08:39:31.098Z,47.17
2018-10-07T08:41:36.392Z,46.17
2018-10-07T08:43:46.748Z,44.97
2018-10-07T08:45:55.579Z,44.73
2018-10-07T08:48:00.789Z,47.77
2018-10-07T08:50:11.001Z,48.63
2018-10-07T08:52:16.796Z,47.73
2018-10-07T08:54:21.043Z,47.57
2018-10-07T08:56:25.787Z,46.20
2018-10-07T08:58:30.276Z,48.93
2018-10-07T09:00:35.079Z,49.93
2018-10-07T09:02:42.576Z,48.87
2018-10-07T09:04:47.495Z,48.30
2018-10-07T09:06:51.734Z,49.00
2018-10-07T09:08:58.764Z,48.10
2018-10-07T09:11:03.099Z,50.63
2018-10-07T09:13:07.740Z,51.37
2018-10-07T09:15:18.589Z,55.93
2018-10-07T09:17:24.699Z,52.83
2018-10-07T09:19:36.781Z,54.63
2018-10-07T09:21:46.803Z,50.73
2018-10-07T09:23:52.988Z,50.93
2018-10-07T09:25:57.887Z,54.43
2018-10-07T09:28:04.521Z,51.33
2018-10-07T09:30:12.767Z,53.40
2018-10-07T09:32:17.560Z,52.47
2018-10-07T09:34:23.401Z,53.10
2018-10-07T09:36:28.808Z,53.37
2018-10-07T09:38:33.071Z,51.40
2018-10-07T09:40:39.422Z,55.27
2018-10-07T09:42:44.340Z,55.67
2018-10-07T09:44:48.676Z,56.57
2018-10-07T09:46:55.056Z,51.30
2018-10-07T09:49:00.428Z,51.97
2018-10-07T09:51:05.192Z,54.80
2018-10-07T09:53:09.462Z,54.80
2018-10-07T09:55:13.668Z,54.23
2018-10-07T09:57:17.897Z,52.27
2018-10-07T09:59:24.346Z,58.40
2018-10-07T10:01:29.226Z,57.13
2018-10-07T10:03:33.495Z,55.87
2018-10-07T10:05:42.437Z,51.50
2018-10-07T10:07:49.316Z,56.23
2018-10-07T10:09:56.646Z,55.03
2018-10-07T10:12:01.708Z,58.60
2018-10-07T10:14:06.481Z,58.13
2018-10-07T10:16:10.843Z,56.77
2018-10-07T10:18:25.626Z,58.50
2018-10-07T10:21:06.010Z,57.83
2018-10-07T10:23:18.467Z,61.33
2018-10-07T10:26:31.257Z,59.57
2018-10-07T10:28:49.586Z,61.00
2018-10-07T10:31:13.205Z,58.97
2018-10-07T10:34:30.226Z,60.53
2018-10-07T10:36:49.201Z,61.80
2018-10-07T10:39:38.390Z,60.83
2018-10-07T10:41:50.607Z,58.60
2018-10-07T10:44:03.243Z,59.80
2018-10-07T10:46:17.615Z,61.30
2018-10-07T10:49:45.352Z,54.80
2018-10-07T10:52:16.295Z,60.47
2018-10-07T10:54:28.883Z,56.87
2018-10-07T10:56:40.719Z,58.53
2018-10-07T11:00:57.886Z,58.83
2018-10-07T11:05:14.838Z,54.27
2018-10-07T11:07:30.820Z,51.90
2018-10-07T11:09:47.378Z,49.37
2018-10-07T11:11:58.479Z,47.10
2018-10-07T11:14:08.805Z,43.30
2018-10-07T11:20:37.582Z,40.23
2018-10-07T11:24:57.372Z,35.60
2018-10-07T11:27:18.373Z,27.17
2018-10-07T11:31:35.737Z,26.50
2018-10-07T11:33:52.372Z,24.47
2018-10-07T11:36:10.362Z,21.00
2018-10-07T11:38:24.276Z,18.67
2018-10-07T11:41:40.367Z,22.63
2018-10-07T11:43:54.802Z,16.50
2018-10-07T11:48:17.757Z,15.03
2018-10-07T11:50:34.056Z,15.53
2018-10-07T11:52:59.250Z,15.13
2018-10-07T11:55:07.536Z,14.10
2018-10-07T11:57:13.021Z,13.53
2018-10-07T11:59:17.717Z,13.40
2018-10-07T12:01:22.319Z,12.50
2018-10-07T12:03:26.595Z,11.47
2018-10-07T12:05:31.685Z,11.90
2018-10-07T12:07:36.107Z,13.03
2018-10-07T12:09:40.922Z,10.17
2018-10-07T12:11:46.351Z,13.17
2018-10-07T12:13:56.713Z,10.50
2018-10-07T12:16:01.041Z,10.73
2018-10-07T12:18:10.709Z,8.97
2018-10-07T12:20:14.932Z,12.17
2018-10-07T12:22:19.238Z,10.40
2018-10-07T12:24:24.120Z,10.20
2018-10-07T12:26:28.535Z,8.77
2018-10-07T12:28:32.864Z,10.00
2018-10-07T12:30:37.550Z,9.57
2018-10-07T12:32:43.415Z,10.07
2018-10-07T12:34:48.513Z,7.73
2018-10-07T12:36:53.930Z,7.73
2018-10-07T12:38:58.283Z,6.30
2018-10-07T12:41:04.150Z,7.20
2018-10-07T12:43:08.983Z,7.60
2018-10-07T12:45:15.325Z,6.73
2018-10-07T12:47:20.581Z,8.20
2018-10-07T12:49:27.246Z,7.03
2018-10-07T12:51:32.457Z,7.97
2018-10-07T12:55:58.267Z,12.13
2018-10-07T12:58:03.662Z,8.27
2018-10-07T13:00:09.554Z,7.37
2018-10-07T13:02:15.167Z,7.93
2018-10-07T13:04:21.035Z,8.07
2018-10-07T13:06:26.313Z,9.90
2018-10-07T13:08:31.534Z,9.17
2018-10-07T13:10:37.519Z,8.17
2018-10-07T13:12:42.417Z,11.20
2018-10-07T13:14:47.768Z,9.00
2018-10-07T13:16:52.924Z,11.47
2018-10-07T13:18:57.519Z,7.50
2018-10-07T13:21:02.200Z,9.00
2018-10-07T13:23:07.507Z,9.43
2018-10-07T13:25:13.469Z,8.20
2018-10-07T13:27:19.310Z,11.73
2018-10-07T13:29:24.574Z,8.90
2018-10-07T13:31:29.985Z,8.90
2018-10-07T13:33:34.667Z,11.50
2018-10-07T13:35:40.448Z,11.27
2018-10-07T13:37:48.002Z,10.57
2018-10-07T13:39:57.519Z,11.17
2018-10-07T13:42:03.385Z,12.50
2018-10-07T13:44:07.684Z,10.23
2018-10-07T13:46:11.956Z,14.60
2018-10-07T13:48:18.435Z,12.00
2018-10-07T13:50:22.613Z,12.13
2018-10-07T13:52:27.999Z,13.80
2018-10-07T13:54:33.023Z,13.77
2018-10-07T13:56:38.143Z,14.20
2018-10-07T13:58:43.630Z,12.90
2018-10-07T14:00:47.853Z,14.67
2018-10-07T14:02:52.787Z,13.93
2018-10-07T14:04:57.008Z,13.67
2018-10-07T14:07:01.346Z,13.87
2018-10-07T14:09:07.675Z,12.73
2018-10-07T14:11:13.897Z,12.80
2018-10-07T14:13:18.779Z,14.57
2018-10-07T14:15:25.730Z,12.70
2018-10-07T14:17:30.586Z,13.13
2018-10-07T14:19:40.517Z,13.07
2018-10-07T14:21:46.474Z,14.30
2018-10-07T14:23:53.170Z,13.30
2018-10-07T14:25:58.370Z,14.13
2018-10-07T14:28:04.394Z,14.17
2018-10-07T14:30:14.020Z,12.97
2018-10-07T14:32:18.384Z,11.97
2018-10-07T14:34:25.081Z,10.70
2018-10-07T14:36:33.024Z,11.47
2018-10-07T14:38:37.381Z,9.70
2018-10-07T14:40:42.399Z,10.80
2018-10-07T14:42:48.057Z,9.37
2018-10-07T14:44:52.443Z,9.30
2018-10-07T14:46:58.283Z,9.73
2018-10-07T14:49:03.870Z,8.87
2018-10-07T14:51:09.252Z,10.30
2018-10-07T14:53:13.825Z,8.40
2018-10-07T14:55:18.432Z,9.37
2018-10-07T14:57:22.633Z,7.67
2018-10-07T14:59:28.067Z,7.60
2018-10-07T15:01:34.302Z,7.63
2018-10-07T15:03:39.622Z,9.30
2018-10-07T15:05:45.979Z,9.37
2018-10-07T15:07:50.641Z,9.87
2018-10-07T15:09:56.688Z,7.10
2018-10-07T15:12:01.269Z,6.60
2018-10-07T15:14:05.978Z,8.00
2018-10-07T15:16:10.477Z,8.37
2018-10-07T15:18:16.330Z,7.77
2018-10-07T15:20:22.190Z,6.50
2018-10-07T15:22:27.755Z,5.83
2018-10-07T15:24:33.210Z,6.20
2018-10-07T15:26:39.188Z,6.73
2018-10-07T15:28:43.411Z,6.63
2018-10-07T15:30:49.206Z,6.87
2018-10-07T15:33:00.380Z,5.13
2018-10-07T15:35:04.834Z,6.17
2018-10-07T15:37:09.307Z,6.37
2018-10-07T15:39:14.869Z,4.30
2018-10-07T15:41:19.170Z,4.33
2018-10-07T15:43:23.580Z,6.07
2018-10-07T15:45:29.974Z,3.83
2018-10-07T15:47:34.189Z,3.63
2018-10-07T15:49:39.880Z,3.57
2018-10-07T15:51:45.419Z,4.47
2018-10-07T15:53:50.560Z,3.87
2018-10-07T15:55:54.926Z,3.87
2018-10-07T15:57:59.393Z,3.47
2018-10-07T16:00:03.642Z,5.40
2018-10-07T16:02:07.894Z,2.90
2018-10-07T16:04:13.773Z,4.17
2018-10-07T16:06:20.392Z,3.97
2018-10-07T16:08:28.664Z,3.13
2018-10-07T16:10:33.264Z,3.27
2018-10-07T16:12:37.817Z,3.60
2018-10-07T16:14:42.211Z,4.67
2018-10-07T16:16:47.788Z,3.97
2018-10-07T16:18:54.634Z,3.77
2018-10-07T16:20:59.433Z,4.30
2018-10-07T16:23:06.009Z,4.27
2018-10-07T16:25:11.403Z,3.60
2018-10-07T16:27:17.401Z,3.70
2018-10-07T16:29:23.112Z,4.17
2018-10-07T16:31:28.985Z,3.63
2018-10-07T16:33:33.258Z,3.67
2018-10-07T16:35:45.530Z,4.17
2018-10-07T16:37:52.348Z,4.23
2018-10-07T16:39:56.526Z,2.80
2018-10-07T16:42:05.439Z,2.97
2018-10-07T16:44:10.516Z,4.60
2018-10-07T16:46:15.811Z,2.83
2018-10-07T16:48:22.731Z,6.23
2018-10-07T16:50:27.301Z,2.77
2018-10-07T16:52:32.289Z,3.27
2018-10-07T16:54:37.977Z,2.53
2018-10-07T16:56:42.893Z,2.93
2018-10-07T16:58:47.323Z,3.13
2018-10-07T17:00:52.197Z,3.17
2018-10-07T17:02:57.588Z,3.13
2018-10-07T17:05:01.920Z,2.87
2018-10-07T17:07:07.295Z,2.77
2018-10-07T17:09:13.449Z,3.87
2018-10-07T17:11:20.389Z,3.43
2018-10-07T17:13:25.727Z,2.50
2018-10-07T17:15:29.979Z,2.83
2018-10-07T17:17:37.162Z,4.77
2018-10-07T17:19:43.330Z,2.77
2018-10-07T17:21:48.877Z,4.60
2018-10-07T17:23:54.713Z,2.80
2018-10-07T17:26:00.775Z,2.30
2018-10-07T17:28:07.321Z,2.20
2018-10-07T17:30:15.520Z,1.90
2018-10-07T17:32:20.741Z,2.23
2018-10-07T17:34:29.646Z,3.13
2018-10-07T17:36:35.457Z,2.33
2018-10-07T17:38:40.727Z,2.37
2018-10-07T17:40:47.237Z,2.67
2018-10-07T17:42:53.419Z,3.03
2018-10-07T17:44:58.970Z,1.93
2018-10-07T17:47:04.738Z,1.73
2018-10-07T17:49:11.479Z,2.60
2018-10-07T17:51:20.014Z,2.33
2018-10-07T17:53:25.075Z,3.83
2018-10-07T17:55:31.545Z,2.10
2018-10-07T17:57:36.257Z,9.53
2018-10-07T17:59:41.747Z,2.77
2018-10-07T18:01:47.556Z,2.10
2018-10-07T18:03:53.364Z,3.77
2018-10-07T18:05:58.361Z,2.57
2018-10-07T18:08:03.685Z,3.40
2018-10-07T18:10:09.834Z,2.10
2018-10-07T18:12:14.407Z,5.80
2018-10-07T18:14:25.705Z,5.53
2018-10-07T18:16:34.675Z,3.33
2018-10-07T18:20:51.177Z,3.40
2018-10-07T18:22:57.079Z,4.40
2018-10-07T18:25:03.156Z,3.83
2018-10-07T18:27:08.109Z,4.90
2018-10-07T18:29:12.509Z,5.33
2018-10-07T18:31:17.937Z,5.73
2018-10-07T18:33:23.310Z,6.07
2018-10-07T18:35:29.459Z,5.70
2018-10-07T18:37:33.753Z,6.70
2018-10-07T18:39:44.504Z,6.93
2018-10-07T18:41:49.693Z,7.77
2018-10-07T18:43:57.784Z,7.80
2018-10-07T18:46:06.984Z,8.73
2018-10-07T18:48:11.378Z,8.47
2018-10-07T18:50:16.371Z,7.67
2018-10-07T18:52:22.331Z,9.10
2018-10-07T18:54:26.667Z,9.97
2018-10-07T18:56:32.193Z,9.43
2018-10-07T18:58:39.468Z,8.47
2018-10-07T19:00:48.612Z,9.13
2018-10-07T19:02:53.779Z,9.27
2018-10-07T19:05:01.372Z,10.70
2018-10-07T19:07:07.827Z,10.67
2018-10-07T19:09:13.492Z,11.60
2018-10-07T19:11:19.499Z,9.17
2018-10-07T19:13:25.758Z,8.20
2018-10-07T19:15:31.360Z,7.93
2018-10-07T19:17:38.265Z,10.87
2018-10-07T19:19:43.239Z,10.10
2018-10-07T19:21:48.859Z,10.27
2018-10-07T19:23:55.685Z,10.20
2018-10-07T19:26:02.084Z,10.37
2018-10-07T19:28:07.319Z,10.40
2018-10-07T19:30:14.409Z,10.87
2018-10-07T19:32:20.380Z,10.70
2018-10-07T19:34:26.428Z,9.70
2018-10-07T19:36:38.553Z,9.90
2018-10-07T19:38:46.439Z,9.93
2018-10-07T19:40:53.304Z,9.97
2018-10-07T19:43:02.676Z,9.40
2018-10-07T19:45:14.376Z,9.63
2018-10-07T19:47:19.852Z,10.43
2018-10-07T19:49:24.569Z,8.93
2018-10-07T19:51:31.337Z,11.23
2018-10-07T19:53:38.977Z,10.60
2018-10-07T19:55:43.654Z,9.27
2018-10-07T19:57:50.439Z,10.63
2018-10-07T19:59:57.682Z,9.37
2018-10-07T20:02:06.489Z,8.57
2018-10-07T20:04:12.129Z,10.53
2018-10-07T20:06:20.714Z,9.37
2018-10-07T20:08:27.449Z,11.07
2018-10-07T20:10:33.223Z,10.63
2018-10-07T20:12:39.712Z,9.27
2018-10-07T20:14:45.251Z,11.07
2018-10-07T20:16:53.177Z,10.30
2018-10-07T20:18:58.549Z,11.67
2018-10-07T20:21:03.198Z,11.63
2018-10-07T20:23:09.792Z,13.07
2018-10-07T20:25:14.591Z,11.90
2018-10-07T20:27:26.668Z,9.53
2018-10-07T20:29:32.146Z,8.60
2018-10-07T20:31:36.448Z,8.47
2018-10-07T20:33:43.775Z,9.07
2018-10-07T20:35:48.264Z,10.43
2018-10-07T20:37:53.925Z,9.17
2018-10-07T20:40:00.263Z,10.57
2018-10-07T20:42:06.921Z,9.40
2018-10-07T20:44:13.243Z,11.47
2018-10-07T20:46:18.614Z,11.47
2018-10-07T20:48:25.955Z,9.50
2018-10-07T20:50:30.608Z,8.77
2018-10-07T20:52:36.481Z,12.63
2018-10-07T20:54:41.990Z,11.23
2018-10-07T20:56:49.319Z,11.53
2018-10-07T20:58:56.530Z,11.77
2018-10-07T21:01:03.578Z,10.33
2018-10-07T21:03:10.118Z,10.00
2018-10-07T21:05:17.293Z,10.60
2018-10-07T21:07:24.289Z,12.40
2018-10-07T21:09:29.017Z,11.33
2018-10-07T21:11:34.087Z,9.53
2018-10-07T21:13:39.377Z,11.70
2018-10-07T21:15:43.735Z,11.33
2018-10-07T21:17:50.066Z,10.30
2018-10-07T21:19:58.395Z,10.33
2018-10-07T21:22:03.351Z,10.67
2018-10-07T21:24:08.120Z,10.47
2018-10-07T21:26:13.836Z,13.23
2018-10-07T21:28:18.221Z,11.40
2018-10-07T21:30:25.192Z,10.67
2018-10-07T21:32:30.198Z,12.90
2018-10-07T21:34:37.832Z,11.10
2018-10-07T21:36:42.509Z,12.50
2018-10-07T21:38:48.151Z,12.13
2018-10-07T21:40:53.941Z,11.67
2018-10-07T21:42:59.299Z,11.40
2018-10-07T21:45:07.022Z,12.63
2018-10-07T21:47:13.303Z,11.43
2018-10-07T21:49:17.500Z,12.90
2018-10-07T21:51:22.547Z,11.80
2018-10-07T21:53:27.435Z,13.03
2018-10-07T21:55:31.674Z,13.73
2018-10-07T21:57:36.394Z,11.97
2018-10-07T21:59:40.757Z,10.83
2018-10-07T22:01:44.954Z,12.27
2018-10-07T22:03:52.703Z,11.63
2018-10-07T22:05:56.934Z,10.33
2018-10-07T22:08:04.560Z,11.83
2018-10-07T22:10:11.118Z,10.33
2018-10-07T22:12:17.518Z,12.47
2018-10-07T22:14:24.867Z,13.07
2018-10-07T22:16:29.129Z,10.87
2018-10-07T22:18:33.307Z,12.07
2018-10-07T22:20:38.485Z,13.00
2018-10-07T22:22:43.912Z,12.67
2018-10-07T22:24:48.601Z,11.37
2018-10-07T22:26:53.719Z,10.10
2018-10-07T22:28:57.859Z,10.27
2018-10-07T22:31:04.475Z,10.67
2018-10-07T22:33:09.402Z,11.17
2018-10-07T22:35:16.514Z,13.40
2018-10-07T22:37:21.087Z,10.53
2018-10-07T22:39:26.651Z,12.00
2018-10-07T22:41:30.935Z,10.53
2018-10-07T22:43:37.747Z,11.53
2018-10-07T22:45:42.353Z,11.10
2018-10-07T22:47:48.186Z,11.43
2018-10-07T22:49:55.885Z,11.30
2018-10-07T22:52:01.184Z,10.27
2018-10-07T22:54:05.401Z,11.17
2018-10-07T22:56:11.943Z,9.63
2018-10-07T22:58:17.186Z,10.73
2018-10-07T23:00:24.522Z,10.97
2018-10-07T23:02:30.296Z,11.50
2018-10-07T23:04:35.188Z,11.57
2018-10-07T23:06:39.726Z,10.60
2018-10-07T23:08:44.618Z,9.73
2018-10-07T23:10:49.773Z,11.30
2018-10-07T23:12:55.924Z,14.40
2018-10-07T23:15:01.199Z,13.17
2018-10-07T23:17:05.632Z,11.90
2018-10-07T23:19:10.704Z,9.97
2018-10-07T23:21:18.755Z,9.97
2018-10-07T23:23:23.348Z,12.93
2018-10-07T23:25:27.563Z,10.40
2018-10-07T23:27:31.735Z,9.43
2018-10-07T23:29:36.235Z,13.17
2018-10-07T23:31:40.579Z,12.50
2018-10-07T23:33:44.819Z,12.53
2018-10-07T23:35:52.300Z,15.23
2018-10-07T23:37:56.407Z,12.60
2018-10-07T23:40:01.508Z,10.13
2018-10-07T23:42:06.496Z,13.47
2018-10-07T23:44:10.965Z,12.13
2018-10-07T23:46:15.789Z,12.10
2018-10-07T23:48:20.351Z,12.33
2018-10-07T23:50:25.383Z,13.10
2018-10-07T23:52:30.968Z,14.00
2018-10-07T23:54:45.994Z,12.13
2018-10-07T23:56:54.724Z,13.53
2018-10-07T23:59:01.000Z,12.83
